createdAt,value
2018-02-24T00:01:46.940Z,1.70
2018-02-24T00:04:13.281Z,1.70
2018-02-24T00:06:39.588Z,1.80
2018-02-24T00:09:06.263Z,1.70
2018-02-24T00:11:32.518Z,1.70
2018-02-24T00:13:58.850Z,1.80
2018-02-24T00:16:25.106Z,1.90
2018-02-24T00:18:51.400Z,1.80
2018-02-24T00:21:17.653Z,1.90
2018-02-24T00:23:43.994Z,1.80
2018-02-24T00:26:10.233Z,1.80
2018-02-24T00:28:36.497Z,1.70
2018-02-24T00:31:02.858Z,1.70
2018-02-24T00:33:29.137Z,1.70
2018-02-24T00:35:55.529Z,1.70
2018-02-24T00:38:22.146Z,1.80
2018-02-24T00:40:48.480Z,1.80
2018-02-24T00:43:14.799Z,1.60
2018-02-24T00:45:41.122Z,1.60
2018-02-24T00:48:07.382Z,1.60
2018-02-24T00:50:33.976Z,1.70
2018-02-24T00:53:00.325Z,1.70
2018-02-24T00:55:26.626Z,1.70
2018-02-24T00:57:53.288Z,1.40
2018-02-24T01:00:19.573Z,1.40
2018-02-24T01:02:45.863Z,1.30
2018-02-24T01:05:12.155Z,1.30
2018-02-24T01:07:38.416Z,1.40
2018-02-24T01:10:05.078Z,1.40
2018-02-24T01:12:31.397Z,1.40
2018-02-24T01:14:57.664Z,1.40
2018-02-24T01:17:23.894Z,1.50
2018-02-24T01:19:50.155Z,1.50
2018-02-24T01:22:16.375Z,1.50
2018-02-24T01:24:42.652Z,1.40
2018-02-24T01:27:08.932Z,1.50
2018-02-24T01:29:35.220Z,1.50
2018-02-24T01:32:01.490Z,1.50
2018-02-24T01:34:27.752Z,1.50
2018-02-24T01:36:54.008Z,1.50
2018-02-24T01:39:20.336Z,1.50
2018-02-24T01:41:46.614Z,1.50
2018-02-24T01:44:12.954Z,1.30
2018-02-24T01:46:39.306Z,1.30
2018-02-24T01:49:05.585Z,1.30
2018-02-24T01:51:31.864Z,1.30
2018-02-24T01:53:58.127Z,1.40
2018-02-24T01:56:24.398Z,1.40
2018-02-24T01:58:50.660Z,1.40
2018-02-24T02:01:17.279Z,1.30
2018-02-24T02:03:43.797Z,1.40
2018-02-24T02:06:10.084Z,1.40
2018-02-24T02:08:36.371Z,1.30
2018-02-24T02:11:02.645Z,1.40
2018-02-24T02:13:28.917Z,1.30
2018-02-24T02:15:55.214Z,1.30
2018-02-24T02:18:21.435Z,1.30
2018-02-24T02:20:47.713Z,1.30
2018-02-24T02:23:14.131Z,1.20
2018-02-24T02:25:40.753Z,1.20
2018-02-24T02:28:07.022Z,1.30
2018-02-24T02:30:33.263Z,1.20
2018-02-24T02:32:59.568Z,1.20
2018-02-24T02:35:25.834Z,1.20
2018-02-24T02:37:52.132Z,1.20
2018-02-24T02:40:18.392Z,1.20
2018-02-24T02:42:46.438Z,1.30
2018-02-24T02:45:12.734Z,1.30
2018-02-24T02:47:38.999Z,1.20
2018-02-24T02:50:05.316Z,1.20
2018-02-24T02:52:31.583Z,1.20
2018-02-24T02:54:57.833Z,1.10
2018-02-24T02:57:24.549Z,1.10
2018-02-24T02:59:50.766Z,1.10
2018-02-24T03:02:17.423Z,1.10
2018-02-24T03:04:44.424Z,1.10
2018-02-24T03:07:10.651Z,0.90
2018-02-24T03:09:36.934Z,1.00
2018-02-24T03:12:03.172Z,1.00
2018-02-24T03:14:29.425Z,1.00
2018-02-24T03:16:55.699Z,0.90
2018-02-24T03:19:22.359Z,0.90
2018-02-24T03:21:48.607Z,0.90
2018-02-24T03:24:15.937Z,0.80
2018-02-24T03:26:42.184Z,0.80
2018-02-24T03:29:08.437Z,0.80
2018-02-24T03:31:34.716Z,0.80
2018-02-24T03:34:01.379Z,0.80
2018-02-24T03:36:27.984Z,0.80
2018-02-24T03:38:54.237Z,0.80
2018-02-24T03:41:20.553Z,0.50
2018-02-24T03:43:46.896Z,0.60
2018-02-24T03:46:19.100Z,0.60
2018-02-24T03:48:45.827Z,0.70
2018-02-24T03:51:12.116Z,0.60
2018-02-24T03:53:38.379Z,0.60
2018-02-24T03:56:04.763Z,0.70
2018-02-24T03:58:30.971Z,0.60
2018-02-24T04:00:57.247Z,0.60
2018-02-24T04:03:23.517Z,0.50
2018-02-24T04:05:49.818Z,0.50
2018-02-24T04:08:16.149Z,0.40
2018-02-24T04:10:42.397Z,0.50
2018-02-24T04:13:08.688Z,0.40
2018-02-24T04:15:34.990Z,0.50
2018-02-24T04:18:01.263Z,0.50
2018-02-24T04:20:27.899Z,0.40
2018-02-24T04:22:54.130Z,0.40
2018-02-24T04:25:20.355Z,0.50
2018-02-24T04:27:47.121Z,0.40
2018-02-24T04:30:13.392Z,0.40
2018-02-24T04:32:39.666Z,0.30
2018-02-24T04:35:05.967Z,0.30
2018-02-24T04:37:32.208Z,0.30
2018-02-24T04:39:58.468Z,0.30
2018-02-24T04:42:24.739Z,0.30
2018-02-24T04:44:51.349Z,0.30
2018-02-24T04:47:17.666Z,0.30
2018-02-24T04:49:43.941Z,0.20
2018-02-24T04:52:10.440Z,0.10
2018-02-24T04:54:37.542Z,0.10
2018-02-24T04:57:04.178Z,0.10
2018-02-24T04:59:30.446Z,0.10
2018-02-24T05:01:56.703Z,0.00
2018-02-24T05:04:22.997Z,-0.10
2018-02-24T05:06:49.300Z,-0.10
2018-02-24T05:09:16.564Z,-0.20
2018-02-24T05:11:42.772Z,0.00
2018-02-24T05:14:09.039Z,-0.10
2018-02-24T05:16:35.302Z,0.00
2018-02-24T05:19:01.564Z,0.00
2018-02-24T05:21:27.818Z,0.00
2018-02-24T05:23:54.056Z,-0.10
2018-02-24T05:26:20.333Z,-0.10
2018-02-24T05:28:47.075Z,-0.20
2018-02-24T05:31:13.343Z,-0.20
2018-02-24T05:33:39.592Z,-0.20
2018-02-24T05:36:05.913Z,-0.20
2018-02-24T05:38:32.165Z,-0.30
2018-02-24T05:40:58.441Z,-0.30
2018-02-24T05:43:24.749Z,-0.30
2018-02-24T05:45:51.021Z,-0.30
2018-02-24T05:48:17.716Z,-0.20
2018-02-24T05:50:44.053Z,-0.20
2018-02-24T05:53:10.311Z,-0.20
2018-02-24T05:55:36.557Z,-0.20
2018-02-24T05:58:02.809Z,-0.20
2018-02-24T06:00:29.449Z,-0.40
2018-02-24T06:02:56.160Z,-0.50
2018-02-24T06:05:23.218Z,-0.50
2018-02-24T06:07:49.489Z,-0.40
2018-02-24T06:10:15.905Z,-0.40
2018-02-24T06:12:42.162Z,-0.40
2018-02-24T06:15:08.780Z,-0.30
2018-02-24T06:17:35.011Z,-0.30
2018-02-24T06:20:01.284Z,-0.40
2018-02-24T06:22:27.544Z,-0.50
2018-02-24T06:24:53.846Z,-0.50
2018-02-24T06:27:20.514Z,-0.50
2018-02-24T06:29:46.927Z,-0.50
2018-02-24T06:32:13.638Z,-0.50
2018-02-24T06:34:39.910Z,-0.50
2018-02-24T06:37:06.444Z,-0.40
2018-02-24T06:39:32.751Z,-0.40
2018-02-24T06:41:58.986Z,-0.40
2018-02-24T06:44:25.241Z,-0.30
2018-02-24T06:46:51.490Z,-0.30
2018-02-24T06:49:18.159Z,-0.30
2018-02-24T06:51:44.424Z,-0.30
2018-02-24T06:54:10.712Z,-0.30
2018-02-24T06:56:37.007Z,-0.30
2018-02-24T06:59:03.300Z,-0.40
2018-02-24T07:01:29.577Z,-0.40
2018-02-24T07:03:56.134Z,-0.40
2018-02-24T07:06:22.367Z,-0.40
2018-02-24T07:08:48.638Z,-0.30
2018-02-24T07:11:14.903Z,-0.20
2018-02-24T07:13:41.148Z,-0.30
2018-02-24T07:16:07.406Z,-0.30
2018-02-24T07:18:33.667Z,-0.20
2018-02-24T07:21:00.315Z,-0.10
2018-02-24T07:23:26.599Z,-0.10
2018-02-24T07:25:52.907Z,-0.10
2018-02-24T07:28:19.163Z,0.00
2018-02-24T07:30:45.450Z,0.00
2018-02-24T07:33:11.712Z,0.00
2018-02-24T07:35:37.987Z,0.00
2018-02-24T07:38:04.256Z,-0.10
2018-02-24T07:40:30.900Z,-0.10
2018-02-24T07:42:57.521Z,0.00
2018-02-24T07:45:23.759Z,0.00
2018-02-24T07:47:50.051Z,0.10
2018-02-24T07:50:16.448Z,0.20
2018-02-24T07:52:43.119Z,0.30
2018-02-24T07:55:09.391Z,0.30
2018-02-24T07:57:35.653Z,0.20
2018-02-24T08:00:03.184Z,0.20
2018-02-24T08:02:29.500Z,0.20
2018-02-24T08:04:55.827Z,0.10
2018-02-24T08:07:22.129Z,0.20
2018-02-24T08:09:48.857Z,0.10
2018-02-24T08:12:15.116Z,0.10
2018-02-24T08:14:41.424Z,0.20
2018-02-24T08:17:07.725Z,0.50
2018-02-24T08:19:33.974Z,0.60
2018-02-24T08:22:00.233Z,0.60
2018-02-24T08:24:26.574Z,0.70
2018-02-24T08:26:52.860Z,0.70
2018-02-24T08:29:19.459Z,0.70
2018-02-24T08:31:45.752Z,0.70
2018-02-24T08:34:12.027Z,0.80
2018-02-24T08:36:38.246Z,0.70
2018-02-24T08:39:04.503Z,0.80
2018-02-24T08:41:30.761Z,0.90
2018-02-24T08:43:57.042Z,0.90
2018-02-24T08:46:23.329Z,0.80
2018-02-24T08:48:49.665Z,0.70
2018-02-24T08:51:16.974Z,0.70
2018-02-24T08:53:43.528Z,0.80
2018-02-24T08:56:09.765Z,0.70
2018-02-24T08:58:36.090Z,0.80
2018-02-24T09:01:02.632Z,0.90
2018-02-24T09:03:28.892Z,1.00
2018-02-24T09:05:55.538Z,1.30
2018-02-24T09:08:22.464Z,1.30
2018-02-24T09:10:48.692Z,1.30
2018-02-24T09:13:14.969Z,1.40
2018-02-24T09:15:41.646Z,1.50
2018-02-24T09:18:07.952Z,1.50
2018-02-24T09:20:34.560Z,1.60
2018-02-24T09:23:01.123Z,1.60
2018-02-24T09:25:27.401Z,1.70
2018-02-24T09:27:53.644Z,1.80
2018-02-24T09:30:19.934Z,1.70
2018-02-24T09:32:47.529Z,1.70
2018-02-24T09:35:13.897Z,1.70
2018-02-24T09:37:40.469Z,1.70
2018-02-24T09:40:07.128Z,1.70
2018-02-24T09:42:33.370Z,1.70
2018-02-24T09:44:59.655Z,1.80
2018-02-24T09:47:25.922Z,1.80
2018-02-24T09:49:52.555Z,1.90
2018-02-24T09:52:18.879Z,1.90
2018-02-24T09:54:45.739Z,2.10
2018-02-24T09:57:12.089Z,2.20
2018-02-24T09:59:38.787Z,2.50
2018-02-24T10:02:05.077Z,2.50
2018-02-24T10:04:31.444Z,2.60
2018-02-24T10:06:58.065Z,2.80
2018-02-24T10:09:24.698Z,3.60
2018-02-24T10:11:51.343Z,4.40
2018-02-24T10:14:17.986Z,5.20
2018-02-24T10:16:44.591Z,5.70
2018-02-24T10:19:10.894Z,5.60
2018-02-24T10:21:37.511Z,6.30
2018-02-24T10:24:04.200Z,8.40
2018-02-24T10:26:30.524Z,8.40
2018-02-24T10:28:56.788Z,10.10
2018-02-24T10:31:23.140Z,12.00
2018-02-24T10:33:49.446Z,13.60
2018-02-24T10:36:16.485Z,14.90
2018-02-24T10:38:42.755Z,16.10
2018-02-24T10:41:09.080Z,18.30
2018-02-24T10:43:35.393Z,20.60
2018-02-24T10:46:01.700Z,23.00
2018-02-24T10:48:28.338Z,25.80
2018-02-24T10:50:54.902Z,25.80
2018-02-24T10:53:21.177Z,27.40
2018-02-24T10:55:47.562Z,28.60
2018-02-24T10:58:13.898Z,29.80
2018-02-24T11:00:40.185Z,30.50
2018-02-24T11:03:06.625Z,30.20
2018-02-24T11:05:33.366Z,29.20
2018-02-24T11:08:03.320Z,29.30
2018-02-24T11:10:29.605Z,29.30
2018-02-24T11:12:55.887Z,29.40
2018-02-24T11:15:22.176Z,29.30
2018-02-24T11:17:48.539Z,29.20
2018-02-24T11:20:15.643Z,30.00
2018-02-24T11:22:41.979Z,30.20
2018-02-24T11:25:08.784Z,30.20
2018-02-24T11:27:35.058Z,29.20
2018-02-24T11:30:01.433Z,27.90
2018-02-24T11:32:27.776Z,29.20
2018-02-24T11:34:54.090Z,29.90
2018-02-24T11:37:20.399Z,31.10
2018-02-24T11:39:47.598Z,32.20
2018-02-24T11:42:13.870Z,32.20
2018-02-24T11:44:40.149Z,32.90
2018-02-24T11:47:06.484Z,32.90
2018-02-24T11:49:32.805Z,33.60
2018-02-24T11:51:59.135Z,33.70
2018-02-24T11:54:25.852Z,34.00
2018-02-24T11:56:52.147Z,34.00
2018-02-24T11:59:18.495Z,32.90
2018-02-24T12:01:44.795Z,32.60
2018-02-24T12:04:11.152Z,32.80
2018-02-24T12:06:37.522Z,32.30
2018-02-24T12:09:03.892Z,33.30
2018-02-24T12:11:30.545Z,33.30
2018-02-24T12:13:59.086Z,33.30
2018-02-24T12:16:25.388Z,33.20
2018-02-24T12:18:51.677Z,33.70
2018-02-24T12:21:18.648Z,33.90
2018-02-24T12:23:45.303Z,33.20
2018-02-24T12:26:11.997Z,33.00
2018-02-24T12:28:38.242Z,33.00
2018-02-24T12:31:06.113Z,33.60
2018-02-24T12:33:32.399Z,33.40
2018-02-24T12:35:58.686Z,33.10
2018-02-24T12:38:24.936Z,32.40
2018-02-24T12:40:51.256Z,32.20
2018-02-24T12:43:18.487Z,31.70
2018-02-24T12:45:45.067Z,31.90
2018-02-24T12:48:11.370Z,31.90
2018-02-24T12:50:37.624Z,31.80
2018-02-24T12:53:03.931Z,31.10
2018-02-24T12:55:30.268Z,30.00
2018-02-24T12:57:57.174Z,29.90
2018-02-24T13:00:23.886Z,27.80
2018-02-24T13:02:50.184Z,27.80
2018-02-24T13:05:17.501Z,27.10
2018-02-24T13:07:44.074Z,25.70
2018-02-24T13:10:10.376Z,24.40
2018-02-24T13:12:37.076Z,22.90
2018-02-24T13:15:03.675Z,22.90
2018-02-24T13:17:30.288Z,21.20
2018-02-24T13:19:56.693Z,21.30
2018-02-24T13:22:23.759Z,20.30
2018-02-24T13:24:51.133Z,20.30
2018-02-24T13:27:17.424Z,19.50
2018-02-24T13:29:44.054Z,17.70
2018-02-24T13:32:11.067Z,17.50
2018-02-24T13:34:37.329Z,17.50
2018-02-24T13:37:03.607Z,16.20
2018-02-24T13:39:29.866Z,15.50
2018-02-24T13:41:56.117Z,15.10
2018-02-24T13:44:22.428Z,14.70
2018-02-24T13:46:48.755Z,14.50
2018-02-24T13:49:15.037Z,13.60
2018-02-24T13:51:41.299Z,13.20
2018-02-24T13:54:07.960Z,13.30
2018-02-24T13:56:34.199Z,13.30
2018-02-24T13:59:00.528Z,13.40
2018-02-24T14:01:26.779Z,13.00
2018-02-24T14:03:53.883Z,12.60
2018-02-24T14:06:20.919Z,12.70
2018-02-24T14:08:47.238Z,12.80
2018-02-24T14:11:14.624Z,12.50
2018-02-24T14:13:40.863Z,12.40
2018-02-24T14:16:07.144Z,12.50
2018-02-24T14:18:33.434Z,12.60
2018-02-24T14:20:59.710Z,12.40
2018-02-24T14:23:26.057Z,12.20
2018-02-24T14:25:52.678Z,12.00
2018-02-24T14:28:19.070Z,11.80
2018-02-24T14:30:45.370Z,11.80
2018-02-24T14:33:11.675Z,11.60
2018-02-24T14:35:38.323Z,10.90
2018-02-24T14:38:05.413Z,10.60
2018-02-24T14:40:32.406Z,10.60
2018-02-24T14:42:58.666Z,10.40
2018-02-24T14:45:25.274Z,9.60
2018-02-24T14:47:51.551Z,9.60
2018-02-24T14:50:17.894Z,9.40
2018-02-24T14:52:44.203Z,9.50
2018-02-24T14:55:15.369Z,9.70
2018-02-24T14:57:41.626Z,9.70
2018-02-24T15:00:10.921Z,9.50
2018-02-24T15:02:37.221Z,9.30
2018-02-24T15:05:03.503Z,9.30
2018-02-24T15:07:29.802Z,9.10
2018-02-24T15:09:56.512Z,8.60
2018-02-24T15:12:22.798Z,8.60
2018-02-24T15:14:49.173Z,8.70
2018-02-24T15:17:15.493Z,8.70
2018-02-24T15:19:41.772Z,8.60
2018-02-24T15:22:08.091Z,8.50
2018-02-24T15:24:34.421Z,8.00
2018-02-24T15:27:00.689Z,7.90
2018-02-24T15:29:26.959Z,7.80
2018-02-24T15:31:53.242Z,7.60
2018-02-24T15:34:19.541Z,7.50
2018-02-24T15:36:47.106Z,7.30
2018-02-24T15:39:13.425Z,6.70
2018-02-24T15:41:39.691Z,6.50
2018-02-24T15:44:05.944Z,6.30
2018-02-24T15:46:32.226Z,6.10
2018-02-24T15:48:58.552Z,6.10
2018-02-24T15:51:24.834Z,6.10
2018-02-24T15:53:51.114Z,6.00
2018-02-24T15:56:17.480Z,5.90
2018-02-24T15:58:43.791Z,5.70
2018-02-24T16:01:10.478Z,5.70
2018-02-24T16:03:36.742Z,5.70
2018-02-24T16:06:03.029Z,5.50
2018-02-24T16:08:29.316Z,5.50
2018-02-24T16:10:55.651Z,5.20
2018-02-24T16:13:21.980Z,5.10
2018-02-24T16:15:48.457Z,5.00
2018-02-24T16:18:15.080Z,4.60
2018-02-24T16:20:41.357Z,4.60
2018-02-24T16:23:07.624Z,4.50
2018-02-24T16:25:33.911Z,4.50
2018-02-24T16:28:00.584Z,4.40
2018-02-24T16:30:26.868Z,4.40
2018-02-24T16:32:53.171Z,4.20
2018-02-24T16:35:19.581Z,4.10
2018-02-24T16:37:45.868Z,4.00
2018-02-24T16:40:12.568Z,3.70
2018-02-24T16:42:38.856Z,3.70
2018-02-24T16:45:05.154Z,3.60
2018-02-24T16:47:31.420Z,3.70
2018-02-24T16:49:57.712Z,3.50
2018-02-24T16:52:23.990Z,3.60
2018-02-24T16:54:50.275Z,3.60
2018-02-24T16:57:16.717Z,3.50
2018-02-24T16:59:42.998Z,3.50
2018-02-24T17:02:10.854Z,3.40
2018-02-24T17:04:37.128Z,3.30
2018-02-24T17:07:05.188Z,3.30
2018-02-24T17:09:31.435Z,3.40
2018-02-24T17:11:57.713Z,3.30
2018-02-24T17:14:23.961Z,3.20
2018-02-24T17:16:50.229Z,3.10
2018-02-24T17:19:17.451Z,3.00
2018-02-24T17:21:43.784Z,3.00
2018-02-24T17:24:10.026Z,2.80
2018-02-24T17:26:36.370Z,2.80
2018-02-24T17:29:02.974Z,2.70
2018-02-24T17:31:29.224Z,2.70
2018-02-24T17:33:55.492Z,2.80
2018-02-24T17:36:21.765Z,2.70
2018-02-24T17:38:48.511Z,2.40
2018-02-24T17:41:14.791Z,2.40
2018-02-24T17:43:41.088Z,2.50
2018-02-24T17:46:07.792Z,2.60
2018-02-24T17:48:34.083Z,2.60
2018-02-24T17:51:00.415Z,2.60
2018-02-24T17:53:26.700Z,2.40
2018-02-24T17:55:52.984Z,2.30
2018-02-24T17:58:19.661Z,2.20
2018-02-24T18:00:45.936Z,2.20
2018-02-24T18:03:12.286Z,2.30
2018-02-24T18:05:38.978Z,2.20
2018-02-24T18:08:05.232Z,2.20
2018-02-24T18:10:31.483Z,2.20
2018-02-24T18:12:57.827Z,2.20
2018-02-24T18:15:24.151Z,2.10
2018-02-24T18:17:50.519Z,1.90
2018-02-24T18:20:18.257Z,1.80
2018-02-24T18:22:44.556Z,1.80
2018-02-24T18:25:10.867Z,1.70
2018-02-24T18:27:37.490Z,1.80
2018-02-24T18:30:04.162Z,1.70
2018-02-24T18:32:30.497Z,1.70
2018-02-24T18:34:56.819Z,1.70
2018-02-24T18:37:23.547Z,1.60
2018-02-24T18:39:50.310Z,1.50
2018-02-24T18:42:17.476Z,1.50
2018-02-24T18:44:43.748Z,1.30
2018-02-24T18:47:10.216Z,1.20
2018-02-24T18:49:37.275Z,1.10
2018-02-24T18:52:03.649Z,1.10
2018-02-24T18:54:29.915Z,1.00
2018-02-24T18:56:56.360Z,1.00
2018-02-24T18:59:23.674Z,1.00
2018-02-24T19:01:50.356Z,1.00
2018-02-24T19:04:16.990Z,1.00
2018-02-24T19:06:43.253Z,0.80
2018-02-24T19:09:09.522Z,0.80
2018-02-24T19:11:36.495Z,0.80
2018-02-24T19:14:02.847Z,0.80
2018-02-24T19:16:29.181Z,0.80
2018-02-24T19:18:56.430Z,0.80
2018-02-24T19:21:22.711Z,0.80
2018-02-24T19:23:49.045Z,0.60
2018-02-24T19:26:15.358Z,0.60
2018-02-24T19:28:41.692Z,0.70
2018-02-24T19:31:08.050Z,0.70
2018-02-24T19:33:35.284Z,0.70
2018-02-24T19:36:01.604Z,0.70
2018-02-24T19:38:27.920Z,0.70
2018-02-24T19:40:54.630Z,0.70
2018-02-24T19:43:20.896Z,0.80
2018-02-24T19:45:47.666Z,0.80
2018-02-24T19:48:13.994Z,0.80
2018-02-24T19:50:40.261Z,0.70
2018-02-24T19:53:06.503Z,0.40
2018-02-24T19:57:29.946Z,0.50
2018-02-24T19:59:56.271Z,0.40
2018-02-24T20:02:22.506Z,0.40
2018-02-24T20:04:48.818Z,0.40
2018-02-24T20:07:15.309Z,0.30
2018-02-24T20:09:42.005Z,0.40
2018-02-24T20:12:08.310Z,0.40
2018-02-24T20:14:34.570Z,0.40
2018-02-24T20:17:00.774Z,0.50
2018-02-24T20:19:27.065Z,0.50
2018-02-24T20:21:53.680Z,0.20
2018-02-24T20:24:19.938Z,0.10
2018-02-24T20:26:46.611Z,0.10
2018-02-24T20:29:13.407Z,0.10
2018-02-24T20:31:40.004Z,0.10
2018-02-24T20:34:06.779Z,0.10
2018-02-24T20:36:33.191Z,0.20
2018-02-24T20:38:59.437Z,0.20
2018-02-24T20:41:26.080Z,0.10
2018-02-24T20:43:52.709Z,0.00
2018-02-24T20:46:19.221Z,0.00
2018-02-24T20:48:45.553Z,0.00
2018-02-24T20:51:11.844Z,-0.10
2018-02-24T20:53:38.551Z,-0.10
2018-02-24T20:56:05.190Z,-0.20
2018-02-24T20:58:33.081Z,-0.20
2018-02-24T21:00:59.464Z,-0.20
2018-02-24T21:03:25.857Z,-0.20
2018-02-24T21:05:52.263Z,-0.20
2018-02-24T21:08:18.898Z,-0.20
2018-02-24T21:10:45.700Z,-0.30
2018-02-24T21:13:12.014Z,-0.30
2018-02-24T21:15:39.182Z,-0.40
2018-02-24T21:18:05.423Z,-0.40
2018-02-24T21:20:31.663Z,-0.30
2018-02-24T21:22:57.935Z,-0.50
2018-02-24T21:25:24.193Z,-0.40
2018-02-24T21:27:50.495Z,-0.40
2018-02-24T21:30:16.793Z,-0.40
2018-02-24T21:32:43.494Z,-0.60
2018-02-24T21:35:09.791Z,-0.60
2018-02-24T21:37:36.053Z,-0.70
2018-02-24T21:40:02.289Z,-0.70
2018-02-24T21:42:28.560Z,-0.80
2018-02-24T21:44:54.834Z,-0.80
2018-02-24T21:47:21.054Z,-0.60
2018-02-24T21:49:47.305Z,-0.70
2018-02-24T21:52:13.555Z,-0.70
2018-02-24T21:54:40.126Z,-0.70
2018-02-24T21:57:06.391Z,-0.60
2018-02-24T21:59:32.649Z,-0.70
2018-02-24T22:01:59.281Z,-1.00
2018-02-24T22:04:25.934Z,-1.10
2018-02-24T22:06:52.515Z,-1.10
2018-02-24T22:09:18.742Z,-1.10
2018-02-24T22:11:45.216Z,-1.20
2018-02-24T22:14:11.810Z,-1.10
2018-02-24T22:16:38.029Z,-1.10
2018-02-24T22:19:04.282Z,-1.10
2018-02-24T22:21:30.525Z,-1.20
2018-02-24T22:23:56.745Z,-1.30
2018-02-24T22:26:22.962Z,-1.30
2018-02-24T22:28:49.236Z,-1.40
2018-02-24T22:31:15.858Z,-1.40
2018-02-24T22:33:42.450Z,-1.40
2018-02-24T22:36:08.716Z,-1.30
2018-02-24T22:38:34.916Z,-1.30
2018-02-24T22:41:01.147Z,-1.40
2018-02-24T22:43:27.452Z,-1.50
2018-02-24T22:45:53.664Z,-1.50
2018-02-24T22:48:26.046Z,-1.50
2018-02-24T22:50:52.288Z,-1.50
2018-02-24T22:53:18.490Z,-1.50
2018-02-24T22:55:44.769Z,-1.40
2018-02-24T22:58:10.994Z,-1.40
2018-02-24T23:00:37.207Z,-1.50
2018-02-24T23:03:03.416Z,-1.40
2018-02-24T23:05:29.627Z,-1.50
2018-02-24T23:07:55.870Z,-1.50
2018-02-24T23:10:22.543Z,-1.50
2018-02-24T23:12:48.743Z,-1.90
2018-02-24T23:15:14.976Z,-1.90
2018-02-24T23:17:41.215Z,-1.90
2018-02-24T23:20:07.448Z,-1.90
2018-02-24T23:22:33.656Z,-1.80
2018-02-24T23:24:59.895Z,-1.70
2018-02-24T23:27:26.182Z,-1.80
2018-02-24T23:29:52.777Z,-1.90
2018-02-24T23:32:19.014Z,-1.80
2018-02-24T23:34:45.231Z,-1.90
2018-02-24T23:37:11.431Z,-2.00
2018-02-24T23:39:37.689Z,-1.90
2018-02-24T23:42:03.968Z,-1.80
2018-02-24T23:44:30.163Z,-1.90
2018-02-24T23:46:56.378Z,-2.00
2018-02-24T23:49:22.576Z,-2.00
2018-02-24T23:51:48.791Z,-2.00
2018-02-24T23:54:15.006Z,-2.20
2018-02-24T23:56:41.559Z,-2.20
2018-02-24T23:59:07.770Z,-2.20
